Sumterville, Florida
Current Conditions -  °F | °C
As of 1:53 AM on Thursday 23 Oct 2014 (Local Time) from KLEE Reporting Station
Clear Clear  
Wind Chill: 17°   Ceiling: Unl
Heat Index: 17°   Visibility: 10mi
Dew Point: 12°   Wind: 7mph
Humidity: 72%   Direction: 50°NE
Pressure: 30.02"   Gusts: NA
Location:  28.75°N, 82.06°W
Report Text: KLEE 230553Z AUTO 05006KT 10SM CLR 17/12 A3002 RMK AO2 SLP163 T01720122 10217 20172 56007
Loading
Personal Weather Stations






























Interactive Weather Map
Tropical Storm Tracking
New forecast layout! Learn more

10-Day Weather Forecast

Advertisements
Track Severe Weather on mobile